createdAt,value
2022-07-31T00:04:49.881Z,10.77
2022-07-31T00:09:54.421Z,10.30
2022-07-31T00:14:58.564Z,11.13
2022-07-31T00:20:01.159Z,11.40
2022-07-31T00:25:03.826Z,11.30
2022-07-31T00:30:09.257Z,10.52
2022-07-31T00:35:13.960Z,10.40
2022-07-31T00:40:17.887Z,10.48
2022-07-31T00:45:22.228Z,10.18
2022-07-31T00:50:32.102Z,10.60
2022-07-31T00:55:41.744Z,10.50
2022-07-31T01:00:55.517Z,9.57
2022-07-31T01:05:58.109Z,9.75
2022-07-31T01:11:06.424Z,9.95
2022-07-31T01:16:12.209Z,9.88
2022-07-31T01:21:20.972Z,9.93
2022-07-31T01:26:35.439Z,10.27
2022-07-31T01:31:46.317Z,10.30
2022-07-31T01:36:58.007Z,10.35
2022-07-31T01:42:05.653Z,10.13
2022-07-31T01:47:10.927Z,10.90
2022-07-31T01:52:15.056Z,10.50
2022-07-31T01:57:18.732Z,11.20
2022-07-31T02:02:24.124Z,10.10
2022-07-31T02:07:29.571Z,10.60
2022-07-31T02:12:34.113Z,9.98
2022-07-31T02:17:39.367Z,10.65
2022-07-31T02:22:42.161Z,9.98
2022-07-31T02:27:53.581Z,9.70
2022-07-31T02:33:04.465Z,10.88
2022-07-31T02:38:08.492Z,11.05
2022-07-31T02:43:26.648Z,10.90
2022-07-31T02:48:31.913Z,11.10
2022-07-31T02:53:35.208Z,12.20
2022-07-31T02:58:41.784Z,11.23
2022-07-31T03:03:45.879Z,12.13
2022-07-31T03:08:48.427Z,11.35
2022-07-31T03:13:53.816Z,11.23
2022-07-31T03:18:58.600Z,10.80
2022-07-31T03:24:01.852Z,11.25
2022-07-31T03:29:05.651Z,10.75
2022-07-31T03:34:29.473Z,12.18
2022-07-31T03:39:31.948Z,11.57
2022-07-31T03:44:35.282Z,12.07
2022-07-31T03:49:40.724Z,11.93
2022-07-31T03:54:43.640Z,10.50
2022-07-31T03:59:48.258Z,10.93
2022-07-31T04:04:52.599Z,9.98
2022-07-31T04:09:55.156Z,10.15
2022-07-31T04:14:57.657Z,10.88
2022-07-31T04:20:02.330Z,11.43
2022-07-31T04:25:09.306Z,11.25
2022-07-31T04:30:13.018Z,9.57
2022-07-31T04:35:16.848Z,10.27
2022-07-31T04:40:19.409Z,11.00
2022-07-31T04:45:21.990Z,10.13
2022-07-31T04:50:26.228Z,8.60
2022-07-31T04:55:28.704Z,10.45
2022-07-31T05:00:31.235Z,10.00
2022-07-31T05:05:35.102Z,9.45
2022-07-31T05:10:54.502Z,10.20
2022-07-31T05:15:57.876Z,9.00
2022-07-31T05:21:01.644Z,8.93
2022-07-31T05:26:05.160Z,8.10
2022-07-31T05:31:09.236Z,7.23
2022-07-31T05:36:13.501Z,8.10
2022-07-31T05:41:19.105Z,7.55
2022-07-31T05:46:21.642Z,8.15
2022-07-31T05:51:25.448Z,7.82
2022-07-31T05:56:28.164Z,8.38
2022-07-31T06:01:30.786Z,6.35
2022-07-31T06:06:34.714Z,7.47
2022-07-31T06:11:37.235Z,6.35
2022-07-31T06:16:39.686Z,7.28
2022-07-31T06:21:43.499Z,7.15
2022-07-31T06:26:45.971Z,7.20
2022-07-31T06:31:49.167Z,7.55
2022-07-31T06:36:53.118Z,7.45
2022-07-31T06:41:55.654Z,7.70
2022-07-31T06:46:58.126Z,6.97
2022-07-31T06:52:04.968Z,6.80
2022-07-31T06:57:08.663Z,7.40
2022-07-31T07:02:11.211Z,7.20
2022-07-31T07:07:15.061Z,6.60
2022-07-31T07:12:17.553Z,7.32
2022-07-31T07:17:20.168Z,6.30
2022-07-31T07:22:31.266Z,6.60
2022-07-31T07:27:34.747Z,7.03
2022-07-31T07:32:38.488Z,6.45
2022-07-31T07:37:42.744Z,6.63
2022-07-31T07:42:45.296Z,6.93
2022-07-31T07:48:05.986Z,6.75
2022-07-31T07:53:12.904Z,6.47
2022-07-31T07:58:15.408Z,7.53
2022-07-31T08:03:48.968Z,6.60
2022-07-31T08:08:41.792Z,5.65
2022-07-31T08:18:54.367Z,6.00
2022-07-31T08:23:58.240Z,6.00
2022-07-31T08:34:07.742Z,5.88
2022-07-31T08:39:17.698Z,5.47
2022-07-31T08:44:30.899Z,5.82
2022-07-31T08:49:37.850Z,5.03
2022-07-31T08:54:44.455Z,5.50
2022-07-31T08:59:47.142Z,5.22
2022-07-31T09:04:52.635Z,5.00
2022-07-31T09:09:57.147Z,5.18
2022-07-31T09:15:00.233Z,5.28
2022-07-31T09:20:03.373Z,4.77
2022-07-31T09:25:15.902Z,5.00
2022-07-31T09:30:18.624Z,5.50
2022-07-31T09:35:21.239Z,5.03
2022-07-31T09:40:35.585Z,5.10
2022-07-31T09:45:48.173Z,4.90
2022-07-31T09:50:54.821Z,4.78
2022-07-31T09:55:59.754Z,4.03
2022-07-31T10:01:03.149Z,4.60
2022-07-31T10:06:07.006Z,4.57
2022-07-31T10:16:22.374Z,3.83
2022-07-31T10:21:30.268Z,3.20
2022-07-31T10:26:59.189Z,2.67
2022-07-31T10:31:57.793Z,3.20
2022-07-31T10:37:11.196Z,3.23
2022-07-31T10:42:27.531Z,2.55
2022-07-31T10:47:30.009Z,2.28
2022-07-31T10:52:34.767Z,2.23
2022-07-31T10:57:56.902Z,1.88
2022-07-31T11:03:00.230Z,1.90
2022-07-31T11:08:05.436Z,2.00
2022-07-31T11:13:11.543Z,1.73
2022-07-31T11:18:16.599Z,1.80
2022-07-31T11:23:31.130Z,1.65
2022-07-31T11:28:35.877Z,1.30
2022-07-31T11:33:43.124Z,1.80
2022-07-31T11:38:47.664Z,1.48
2022-07-31T11:43:52.654Z,1.70
2022-07-31T11:48:56.146Z,1.33
2022-07-31T11:53:59.237Z,1.13
2022-07-31T11:59:03.152Z,1.38
2022-07-31T12:04:08.759Z,1.35
2022-07-31T12:10:00.375Z,1.40
2022-07-31T12:14:37.958Z,1.55
2022-07-31T12:19:40.410Z,1.50
2022-07-31T12:24:44.070Z,1.52
2022-07-31T12:29:48.363Z,1.85
2022-07-31T12:35:02.540Z,1.83
2022-07-31T12:40:06.075Z,1.70
2022-07-31T12:45:19.473Z,1.80
2022-07-31T12:50:23.614Z,1.60
2022-07-31T12:55:26.338Z,1.73
2022-07-31T13:00:30.237Z,1.20
2022-07-31T13:05:32.859Z,1.88
2022-07-31T13:10:35.737Z,1.63
2022-07-31T13:15:39.552Z,2.00
2022-07-31T13:20:42.057Z,1.73
2022-07-31T13:25:44.542Z,1.50
2022-07-31T13:30:53.242Z,1.58
2022-07-31T13:35:57.509Z,1.85
2022-07-31T13:41:17.822Z,1.40
2022-07-31T13:46:22.703Z,1.55
2022-07-31T13:51:28.843Z,1.50
2022-07-31T13:56:40.381Z,1.55
2022-07-31T14:02:03.359Z,1.73
2022-07-31T14:07:09.099Z,1.52
2022-07-31T14:12:11.987Z,1.85
2022-07-31T14:17:19.199Z,1.77
2022-07-31T14:22:21.701Z,1.90
2022-07-31T14:27:24.188Z,1.98
2022-07-31T14:32:30.440Z,1.57
2022-07-31T14:37:32.962Z,1.70
2022-07-31T14:42:36.084Z,1.60
2022-07-31T14:47:39.942Z,2.00
2022-07-31T14:52:42.612Z,1.40
2022-07-31T14:57:45.323Z,1.40
2022-07-31T15:02:49.556Z,1.40
2022-07-31T15:07:52.393Z,1.52
2022-07-31T15:12:55.581Z,1.73
2022-07-31T15:17:59.574Z,1.40
2022-07-31T15:23:02.582Z,1.80
2022-07-31T15:28:05.817Z,1.80
2022-07-31T15:33:09.712Z,1.73
2022-07-31T15:38:12.315Z,1.80
2022-07-31T15:43:14.829Z,2.20
2022-07-31T15:48:18.654Z,1.83
2022-07-31T15:53:21.105Z,1.83
2022-07-31T15:58:23.665Z,2.20
2022-07-31T16:03:50.802Z,2.20
2022-07-31T16:08:54.303Z,2.20
2022-07-31T16:13:57.026Z,2.50
2022-07-31T16:19:00.833Z,2.28
2022-07-31T16:24:03.310Z,2.38
2022-07-31T16:29:05.776Z,2.77
2022-07-31T16:34:13.641Z,2.55
2022-07-31T16:39:22.130Z,2.60
2022-07-31T16:44:24.907Z,2.80
2022-07-31T16:49:36.900Z,2.65
2022-07-31T16:54:40.157Z,2.75
2022-07-31T16:59:56.925Z,2.40
2022-07-31T17:05:01.519Z,2.90
2022-07-31T17:10:04.314Z,2.58
2022-07-31T17:15:07.715Z,2.55
2022-07-31T17:25:18.402Z,2.78
2022-07-31T17:35:24.718Z,2.80
2022-07-31T17:40:42.471Z,2.20
2022-07-31T17:46:05.291Z,2.40
2022-07-31T17:51:10.538Z,2.42
2022-07-31T17:56:13.458Z,2.20
2022-07-31T18:01:16.045Z,2.30
2022-07-31T18:06:19.939Z,2.10
2022-07-31T18:11:22.774Z,2.03
2022-07-31T18:16:25.319Z,2.35
2022-07-31T18:21:29.227Z,1.85
2022-07-31T18:26:31.952Z,2.47
2022-07-31T18:31:35.887Z,2.30
2022-07-31T18:36:41.111Z,2.33
2022-07-31T18:41:48.808Z,2.00
2022-07-31T18:46:53.008Z,2.30
2022-07-31T18:51:56.882Z,2.03
2022-07-31T18:56:59.565Z,2.45
2022-07-31T19:02:03.212Z,2.37
2022-07-31T19:07:07.353Z,2.42
2022-07-31T19:12:10.444Z,2.20
2022-07-31T19:17:13.389Z,2.20
2022-07-31T19:22:22.503Z,2.35
2022-07-31T19:27:48.484Z,2.50
2022-07-31T19:32:48.115Z,2.50
2022-07-31T19:37:58.044Z,2.92
2022-07-31T19:43:00.582Z,3.22
2022-07-31T19:48:03.214Z,3.40
2022-07-31T19:53:07.383Z,4.15
2022-07-31T19:58:09.957Z,3.17
2022-07-31T20:03:13.910Z,2.50
2022-07-31T20:08:17.802Z,2.47
2022-07-31T20:13:20.723Z,2.90
2022-07-31T20:18:27.226Z,3.03
2022-07-31T20:23:34.424Z,4.15
2022-07-31T20:28:37.537Z,3.03
2022-07-31T20:33:40.047Z,3.17
2022-07-31T20:38:43.974Z,2.70
2022-07-31T20:43:46.473Z,2.53
2022-07-31T20:48:50.009Z,2.85
2022-07-31T20:58:56.838Z,2.13
2022-07-31T21:03:59.384Z,2.58
2022-07-31T21:09:04.490Z,2.38
2022-07-31T21:14:07.204Z,2.47
2022-07-31T21:19:10.361Z,2.50
2022-07-31T21:24:14.840Z,2.10
2022-07-31T21:29:17.848Z,2.92
2022-07-31T21:34:20.956Z,2.60
2022-07-31T21:39:25.893Z,2.70
2022-07-31T21:44:28.723Z,3.03
2022-07-31T21:49:33.686Z,2.70
2022-07-31T21:54:37.544Z,2.90
2022-07-31T22:04:56.389Z,2.50
2022-07-31T22:10:00.603Z,3.28
2022-07-31T22:15:03.103Z,2.58
2022-07-31T22:20:07.619Z,2.83
2022-07-31T22:25:13.395Z,3.28
2022-07-31T22:30:17.177Z,3.55
2022-07-31T22:35:20.130Z,3.30
2022-07-31T22:40:25.174Z,3.28
2022-07-31T22:45:27.864Z,4.03
2022-07-31T22:50:30.756Z,2.88
2022-07-31T22:55:35.200Z,3.25
2022-07-31T23:00:38.465Z,2.92
2022-07-31T23:06:02.493Z,3.00
2022-07-31T23:11:04.934Z,3.03
2022-07-31T23:21:09.833Z,3.00
2022-07-31T23:26:14.610Z,3.43
2022-07-31T23:31:17.481Z,2.97
2022-07-31T23:36:20.259Z,3.85
2022-07-31T23:41:38.088Z,3.13
2022-07-31T23:46:40.663Z,3.40
2022-07-31T23:51:43.206Z,3.10
2022-07-31T23:56:46.987Z,3.47
